Wetterdaten: Dienstag, 20.01.2015
Datum Zeit Temp. A. Feuchte A. Luftdruck Regen Wind Richtung Richtung Sonnenschein ET UV Solar Taupunkt Windchill Windben Empfang
20.01.2015 00:00 -1,0 C 80 % 1010,0 hPa 0,0 l/m 0,0 km/h (0 Bft) S-SW 192 0 min 0,000 mm 0,0 UV-I 0 W/m -4,0 C -1,0 C 0,0 km/h (0 Bft) 0,00 %
20.01.2015 00:15 -1,0 C 81 % 1010,0 hPa 0,0 l/m 0,0 km/h (0 Bft) S 175 0 min 0,000 mm 0,0 UV-I 0 W/m -3,8 C -1,0 C 0,0 km/h (0 Bft) 0,00 %
20.01.2015 00:30 -0,7 C 80 % 1009,9 hPa 0,0 l/m 2,9 km/h (1 Bft) S 172 0 min 0,000 mm 0,0 UV-I 0 W/m -3,7 C -0,7 C 4,0 km/h (1 Bft) 0,00 %
20.01.2015 00:45 -0,5 C 79 % 1009,6 hPa 0,0 l/m 7,9 km/h (2 Bft) O 101 0 min 0,000 mm 0,0 UV-I 0 W/m -3,7 C -2,1 C 11,9 km/h (2 Bft) 0,00 %
20.01.2015 01:00 -0,5 C 80 % 1009,6 hPa 0,0 l/m 4,3 km/h (1 Bft) SO 132 0 min 0,000 mm 0,0 UV-I 0 W/m -3,5 C -0,5 C 7,9 km/h (2 Bft) 0,00 %
20.01.2015 01:15 -0,5 C 80 % 1009,7 hPa 0,0 l/m 1,8 km/h (1 Bft) O-NO 78 0 min 0,000 mm 0,0 UV-I 0 W/m -3,5 C -0,5 C 4,0 km/h (1 Bft) 0,00 %
20.01.2015 01:30 -0,5 C 80 % 1009,7 hPa 0,0 l/m 1,4 km/h (1 Bft) S 177 0 min 0,000 mm 0,0 UV-I 0 W/m -3,5 C -0,5 C 4,0 km/h (1 Bft) 0,00 %
20.01.2015 01:45 -0,5 C 80 % 1009,9 hPa 0,0 l/m 0,0 km/h (0 Bft) S-SW 195 0 min 0,000 mm 0,0 UV-I 0 W/m -3,5 C -0,5 C 0,0 km/h (0 Bft) 0,00 %
20.01.2015 02:00 -0,5 C 80 % 1009,7 hPa 0,0 l/m 1,4 km/h (1 Bft) SO 137 0 min 0,000 mm 0,0 UV-I 0 W/m -3,5 C -0,5 C 4,0 km/h (1 Bft) 0,00 %
20.01.2015 02:15 -0,5 C 80 % 1009,2 hPa 0,0 l/m 4,3 km/h (1 Bft) O-SO 123 0 min 0,000 mm 0,0 UV-I 0 W/m -3,5 C -0,5 C 7,9 km/h (2 Bft) 0,00 %
20.01.2015 02:30 -0,5 C 81 % 1009,4 hPa 0,0 l/m 4,3 km/h (1 Bft) SO 124 0 min 0,000 mm 0,0 UV-I 0 W/m -3,3 C -0,5 C 7,9 km/h (2 Bft) 0,00 %
20.01.2015 02:45 -0,6 C 81 % 1009,3 hPa 0,0 l/m 2,2 km/h (1 Bft) S 172 0 min 0,000 mm 0,0 UV-I 0 W/m -3,4 C -0,6 C 7,9 km/h (2 Bft) 0,00 %
20.01.2015 03:00 -0,6 C 81 % 1009,3 hPa 0,0 l/m 2,2 km/h (1 Bft) O-SO 123 0 min 0,000 mm 0,0 UV-I 0 W/m -3,4 C -0,6 C 4,0 km/h (1 Bft) 0,00 %
20.01.2015 03:15 -0,7 C 81 % 1009,1 hPa 0,0 l/m 0,7 km/h (0 Bft) O-SO 117 0 min 0,000 mm 0,0 UV-I 0 W/m -3,5 C -0,7 C 4,0 km/h (1 Bft) 0,00 %
20.01.2015 03:30 -0,7 C 81 % 1009,1 hPa 0,0 l/m 1,4 km/h (1 Bft) O-SO 123 0 min 0,000 mm 0,0 UV-I 0 W/m -3,5 C -0,7 C 4,0 km/h (1 Bft) 0,00 %
20.01.2015 03:45 -0,7 C 81 % 1009,1 hPa 0,0 l/m 0,7 km/h (0 Bft) O 98 0 min 0,000 mm 0,0 UV-I 0 W/m -3,5 C -0,7 C 4,0 km/h (1 Bft) 0,00 %
20.01.2015 04:00 -0,6 C 82 % 1008,9 hPa 0,0 l/m 0,0 km/h (0 Bft) S 173 0 min 0,000 mm 0,0 UV-I 0 W/m -3,3 C -0,6 C 0,0 km/h (0 Bft) 0,00 %
20.01.2015 04:15 -0,6 C 82 % 1008,9 hPa 0,0 l/m 0,0 km/h (0 Bft) O-SO 119 0 min 0,000 mm 0,0 UV-I 0 W/m -3,3 C -0,6 C 0,0 km/h (0 Bft) 0,00 %
20.01.2015 04:30 -0,5 C 81 % 1009,0 hPa 0,0 l/m 0,0 km/h (0 Bft) S 181 0 min 0,000 mm 0,0 UV-I 0 W/m -3,3 C -0,5 C 0,0 km/h (0 Bft) 0,00 %
20.01.2015 04:45 -0,6 C 81 % 1009,0 hPa 0,0 l/m 0,4 km/h (0 Bft) SO 141 0 min 0,000 mm 0,0 UV-I 0 W/m -3,4 C -0,6 C 4,0 km/h (1 Bft) 0,00 %
20.01.2015 05:00 -0,6 C 81 % 1008,8 hPa 0,0 l/m 0,0 km/h (0 Bft) S-SO 164 0 min 0,000 mm 0,0 UV-I 0 W/m -3,4 C -0,6 C 0,0 km/h (0 Bft) 0,00 %
20.01.2015 05:15 -0,6 C 81 % 1008,9 hPa 0,0 l/m 0,0 km/h (0 Bft) S 189 0 min 0,000 mm 0,0 UV-I 0 W/m -3,4 C -0,6 C 0,0 km/h (0 Bft) 0,00 %
20.01.2015 05:30 -0,7 C 81 % 1008,9 hPa 0,0 l/m 1,4 km/h (1 Bft) O-SO 112 0 min 0,000 mm 0,0 UV-I 0 W/m -3,5 C -0,7 C 4,0 km/h (1 Bft) 0,00 %
20.01.2015 05:45 -0,7 C 81 % 1008,8 hPa 0,0 l/m 0,0 km/h (0 Bft) S-SW 207 0 min 0,000 mm 0,0 UV-I 0 W/m -3,5 C -0,7 C 0,0 km/h (0 Bft) 0,00 %
20.01.2015 06:00 -0,7 C 81 % 1009,0 hPa 0,0 l/m 0,0 km/h (0 Bft) S-SW 195 0 min 0,000 mm 0,0 UV-I 0 W/m -3,5 C -0,7 C 0,0 km/h (0 Bft) 0,00 %
20.01.2015 06:15 -0,7 C 81 % 1009,0 hPa 0,0 l/m 0,0 km/h (0 Bft) S-SW 202 0 min 0,000 mm 0,0 UV-I 0 W/m -3,5 C -0,7 C 0,0 km/h (0 Bft) 0,00 %
20.01.2015 06:30 -0,6 C 81 % 1009,0 hPa 0,0 l/m 0,0 km/h (0 Bft) S 185 0 min 0,000 mm 0,0 UV-I 0 W/m -3,4 C -0,6 C 0,0 km/h (0 Bft) 0,00 %
20.01.2015 06:45 -0,5 C 81 % 1008,9 hPa 0,0 l/m 0,0 km/h (0 Bft) S 190 0 min 0,000 mm 0,0 UV-I 0 W/m -3,3 C -0,5 C 0,0 km/h (0 Bft) 0,00 %
20.01.2015 07:00 -0,6 C 81 % 1009,1 hPa 0,0 l/m 0,0 km/h (0 Bft) S 188 0 min 0,000 mm 0,0 UV-I 0 W/m -3,4 C -0,6 C 0,0 km/h (0 Bft) 0,00 %
20.01.2015 07:15 -0,6 C 81 % 1009,0 hPa 0,0 l/m 0,0 km/h (0 Bft) S-SW 203 0 min 0,000 mm 0,0 UV-I 0 W/m -3,4 C -0,6 C 0,0 km/h (0 Bft) 0,00 %
20.01.2015 07:30 -0,6 C 81 % 1009,4 hPa 0,0 l/m 0,0 km/h (0 Bft) S-SW 201 0 min 0,000 mm 0,0 UV-I 0 W/m -3,4 C -0,6 C 0,0 km/h (0 Bft) 0,00 %
20.01.2015 07:45 -0,6 C 81 % 1009,5 hPa 0,0 l/m 0,0 km/h (0 Bft) S-SW 206 0 min 0,000 mm 0,0 UV-I 0 W/m -3,4 C -0,6 C 0,0 km/h (0 Bft) 0,00 %
20.01.2015 08:00 -0,5 C 80 % 1009,3 hPa 0,0 l/m 0,0 km/h (0 Bft) SW 214 0 min 0,000 mm 0,0 UV-I 0 W/m -3,5 C -0,5 C 0,0 km/h (0 Bft) 0,00 %
20.01.2015 08:15 -0,5 C 80 % 1009,5 hPa 0,0 l/m 0,0 km/h (0 Bft) S-SW 204 0 min 0,000 mm 0,0 UV-I 0 W/m -3,5 C -0,5 C 0,0 km/h (0 Bft) 0,00 %
20.01.2015 08:30 -0,4 C 80 % 1009,5 hPa 0,0 l/m 0,0 km/h (0 Bft) SW 229 0 min 0,000 mm 0,0 UV-I 15 W/m -3,4 C -0,4 C 0,0 km/h (0 Bft) 0,00 %
20.01.2015 08:45 -0,4 C 80 % 1009,4 hPa 0,0 l/m 0,0 km/h (0 Bft) SW 214 0 min 0,000 mm 0,0 UV-I 20 W/m -3,4 C -0,4 C 0,0 km/h (0 Bft) 0,00 %
20.01.2015 09:00 -0,3 C 79 % 1009,6 hPa 0,0 l/m 0,0 km/h (0 Bft) S-SW 204 0 min 0,000 mm 0,0 UV-I 20 W/m -3,5 C -0,3 C 0,0 km/h (0 Bft) 0,00 %
20.01.2015 09:15 -0,2 C 79 % 1009,5 hPa 0,0 l/m 0,0 km/h (0 Bft) SW 216 15 min 0,000 mm 1,0 UV-I 121 W/m -3,4 C -0,2 C 0,0 km/h (0 Bft) 0,00 %
20.01.2015 09:30 0,1 C 77 % 1009,7 hPa 0,0 l/m 0,0 km/h (0 Bft) S-SW 210 15 min 0,000 mm 1,0 UV-I 155 W/m -3,4 C 0,1 C 0,0 km/h (0 Bft) 0,00 %
20.01.2015 09:45 0,4 C 74 % 1009,4 hPa 0,0 l/m 0,0 km/h (0 Bft) S-SW 202 0 min 0,000 mm 1,0 UV-I 123 W/m -3,7 C 0,4 C 0,0 km/h (0 Bft) 0,00 %
20.01.2015 10:00 0,5 C 74 % 1009,5 hPa 0,0 l/m 0,0 km/h (0 Bft) SW 225 0 min 0,000 mm 1,0 UV-I 112 W/m -3,6 C 0,5 C 0,0 km/h (0 Bft) 0,00 %
20.01.2015 10:15 0,4 C 73 % 1009,4 hPa 0,0 l/m 0,0 km/h (0 Bft) S-SW 202 0 min 0,000 mm 1,0 UV-I 123 W/m -3,9 C 0,4 C 0,0 km/h (0 Bft) 0,00 %
20.01.2015 10:30 0,5 C 73 % 1009,6 hPa 0,0 l/m 0,0 km/h (0 Bft) SW 219 0 min 0,000 mm 1,0 UV-I 134 W/m -3,8 C 0,5 C 0,0 km/h (0 Bft) 0,00 %
20.01.2015 10:45 0,5 C 72 % 1009,5 hPa 0,0 l/m 0,0 km/h (0 Bft) W-SW 239 0 min 0,000 mm 1,0 UV-I 134 W/m -3,9 C 0,5 C 0,0 km/h (0 Bft) 0,00 %
20.01.2015 11:00 0,7 C 72 % 1009,6 hPa 0,0 l/m 0,0 km/h (0 Bft) S-SW 205 0 min 0,000 mm 1,0 UV-I 134 W/m -3,8 C 0,7 C 0,0 km/h (0 Bft) 0,00 %
20.01.2015 11:15 0,8 C 73 % 1009,5 hPa 0,0 l/m 0,0 km/h (0 Bft) SW 216 0 min 0,000 mm 1,0 UV-I 155 W/m -3,5 C 0,8 C 0,0 km/h (0 Bft) 0,00 %
20.01.2015 11:30 0,9 C 72 % 1009,3 hPa 0,0 l/m 0,0 km/h (0 Bft) S-SW 206 0 min 0,000 mm 1,0 UV-I 134 W/m -3,6 C 0,9 C 0,0 km/h (0 Bft) 0,00 %
20.01.2015 11:45 0,9 C 72 % 1009,3 hPa 0,0 l/m 0,0 km/h (0 Bft) S 190 0 min 0,000 mm 1,0 UV-I 146 W/m -3,6 C 0,9 C 0,0 km/h (0 Bft) 0,00 %
20.01.2015 12:00 1,1 C 71 % 1009,1 hPa 0,0 l/m 0,0 km/h (0 Bft) S 191 0 min 0,000 mm 1,0 UV-I 199 W/m -3,6 C 1,1 C 0,0 km/h (0 Bft) 0,00 %
20.01.2015 12:15 1,1 C 71 % 1009,2 hPa 0,0 l/m 0,0 km/h (0 Bft) S-SW 195 0 min 0,000 mm 1,0 UV-I 189 W/m -3,6 C 1,1 C 0,0 km/h (0 Bft) 0,00 %
20.01.2015 12:30 1,1 C 71 % 1009,1 hPa 0,0 l/m 0,0 km/h (0 Bft) S-SW 209 0 min 0,000 mm 1,0 UV-I 200 W/m -3,6 C 1,1 C 0,0 km/h (0 Bft) 0,00 %
20.01.2015 12:45 1,4 C 69 % 1009,0 hPa 0,0 l/m 0,0 km/h (0 Bft) SW 226 0 min 0,000 mm 1,0 UV-I 199 W/m -3,7 C 1,4 C 0,0 km/h (0 Bft) 0,00 %
20.01.2015 13:00 1,1 C 69 % 1009,0 hPa 0,0 l/m 0,0 km/h (0 Bft) SW 231 0 min 0,000 mm 1,0 UV-I 199 W/m -3,9 C 1,1 C 0,0 km/h (0 Bft) 0,00 %
20.01.2015 13:15 1,1 C 69 % 1009,0 hPa 0,0 l/m 0,0 km/h (0 Bft) W-NW 282 0 min 0,000 mm 1,0 UV-I 195 W/m -3,9 C 1,1 C 0,0 km/h (0 Bft) 0,00 %
20.01.2015 13:30 1,2 C 70 % 1009,2 hPa 0,0 l/m 0,0 km/h (0 Bft) S-SW 209 15 min 0,000 mm 1,0 UV-I 205 W/m -3,7 C 1,2 C 0,0 km/h (0 Bft) 0,00 %
20.01.2015 13:45 1,4 C 68 % 1009,0 hPa 0,0 l/m 0,0 km/h (0 Bft) SW 215 15 min 0,000 mm 1,0 UV-I 200 W/m -3,8 C 1,4 C 0,0 km/h (0 Bft) 0,00 %
20.01.2015 14:00 1,4 C 68 % 1008,6 hPa 0,0 l/m 0,0 km/h (0 Bft) W-NW 294 0 min 0,000 mm 1,0 UV-I 155 W/m -3,8 C 1,4 C 0,0 km/h (0 Bft) 0,00 %
20.01.2015 14:15 1,8 C 67 % 1008,9 hPa 0,0 l/m 0,0 km/h (0 Bft) SW 219 0 min 0,000 mm 1,0 UV-I 123 W/m -3,7 C 1,8 C 0,0 km/h (0 Bft) 0,00 %
20.01.2015 14:30 1,4 C 69 % 1009,1 hPa 0,0 l/m 0,0 km/h (0 Bft) SW 226 0 min 0,000 mm 1,0 UV-I 123 W/m -3,7 C 1,4 C 0,0 km/h (0 Bft) 0,00 %
20.01.2015 14:45 1,6 C 67 % 1009,0 hPa 0,0 l/m 0,0 km/h (0 Bft) W-SW 251 0 min 0,000 mm 1,0 UV-I 111 W/m -3,9 C 1,6 C 0,0 km/h (0 Bft) 0,00 %
20.01.2015 15:00 1,7 C 66 % 1009,1 hPa 0,0 l/m 0,0 km/h (0 Bft) SW 216 15 min 0,000 mm 1,0 UV-I 134 W/m -4,0 C 1,7 C 0,0 km/h (0 Bft) 0,00 %
20.01.2015 15:15 1,3 C 68 % 1009,2 hPa 0,0 l/m 0,0 km/h (0 Bft) SW 224 15 min 0,000 mm 1,0 UV-I 110 W/m -3,9 C 1,3 C 0,0 km/h (0 Bft) 0,00 %
20.01.2015 15:30 1,0 C 70 % 1009,3 hPa 0,0 l/m 0,0 km/h (0 Bft) S-SW 212 15 min 0,000 mm 1,0 UV-I 108 W/m -3,8 C 1,0 C 0,0 km/h (0 Bft) 0,00 %
20.01.2015 15:45 0,9 C 71 % 1009,6 hPa 0,0 l/m 0,0 km/h (0 Bft) SW 216 0 min 0,000 mm 0,0 UV-I 51 W/m -3,7 C 0,9 C 0,0 km/h (0 Bft) 0,00 %
20.01.2015 16:00 0,7 C 71 % 1009,6 hPa 0,0 l/m 0,0 km/h (0 Bft) S-SW 212 0 min 0,000 mm 0,0 UV-I 7 W/m -3,9 C 0,7 C 0,0 km/h (0 Bft) 0,00 %
20.01.2015 16:15 0,6 C 71 % 1009,7 hPa 0,0 l/m 0,0 km/h (0 Bft) SW 214 0 min 0,000 mm 0,0 UV-I 0 W/m -4,0 C 0,6 C 0,0 km/h (0 Bft) 0,00 %
20.01.2015 16:30 0,4 C 73 % 1009,9 hPa 0,0 l/m 0,0 km/h (0 Bft) S-SW 200 0 min 0,000 mm 0,0 UV-I 0 W/m -3,9 C 0,4 C 0,0 km/h (0 Bft) 0,00 %
20.01.2015 16:45 0,3 C 75 % 1010,0 hPa 0,0 l/m 0,0 km/h (0 Bft) S-SW 206 0 min 0,000 mm 0,0 UV-I 0 W/m -3,6 C 0,3 C 0,0 km/h (0 Bft) 0,00 %
20.01.2015 17:00 0,3 C 75 % 1010,3 hPa 0,0 l/m 0,0 km/h (0 Bft) S-SW 201 0 min 0,000 mm 0,0 UV-I 0 W/m -3,6 C 0,3 C 0,0 km/h (0 Bft) 0,00 %
20.01.2015 17:15 0,3 C 76 % 1010,3 hPa 0,0 l/m 0,0 km/h (0 Bft) S-SW 199 0 min 0,000 mm 0,0 UV-I 0 W/m -3,4 C 0,3 C 0,0 km/h (0 Bft) 0,00 %
20.01.2015 17:30 0,3 C 76 % 1010,2 hPa 0,0 l/m 0,0 km/h (0 Bft) S-SW 202 0 min 0,000 mm 0,0 UV-I 0 W/m -3,4 C 0,3 C 0,0 km/h (0 Bft) 0,00 %
20.01.2015 17:45 0,2 C 77 % 1010,4 hPa 0,0 l/m 0,0 km/h (0 Bft) S-SW 205 0 min 0,000 mm 0,0 UV-I 0 W/m -3,3 C 0,2 C 0,0 km/h (0 Bft) 0,00 %
20.01.2015 18:00 0,2 C 77 % 1010,2 hPa 0,0 l/m 0,0 km/h (0 Bft) S-SW 199 0 min 0,000 mm 0,0 UV-I 0 W/m -3,3 C 0,2 C 0,0 km/h (0 Bft) 0,00 %
20.01.2015 18:15 0,2 C 77 % 1010,5 hPa 0,0 l/m 0,0 km/h (0 Bft) S-SW 212 0 min 0,000 mm 0,0 UV-I 0 W/m -3,3 C 0,2 C 0,0 km/h (0 Bft) 0,00 %
20.01.2015 18:30 0,2 C 78 % 1010,5 hPa 0,0 l/m 0,0 km/h (0 Bft) S-SW 208 0 min 0,000 mm 0,0 UV-I 0 W/m -3,2 C 0,2 C 0,0 km/h (0 Bft) 0,00 %
20.01.2015 18:45 0,2 C 79 % 1010,7 hPa 0,0 l/m 0,0 km/h (0 Bft) SW 222 0 min 0,000 mm 0,0 UV-I 0 W/m -3,0 C 0,2 C 0,0 km/h (0 Bft) 0,00 %
20.01.2015 19:00 0,3 C 79 % 1010,7 hPa 0,0 l/m 0,0 km/h (0 Bft) S-SW 201 0 min 0,000 mm 0,0 UV-I 0 W/m -2,9 C 0,3 C 0,0 km/h (0 Bft) 0,00 %
20.01.2015 19:15 0,2 C 79 % 1011,1 hPa 0,0 l/m 0,0 km/h (0 Bft) S-SW 206 0 min 0,000 mm 0,0 UV-I 0 W/m -3,0 C 0,2 C 0,0 km/h (0 Bft) 0,00 %
20.01.2015 19:30 0,2 C 79 % 1011,1 hPa 0,0 l/m 0,0 km/h (0 Bft) S-SW 209 0 min 0,000 mm 0,0 UV-I 0 W/m -3,0 C 0,2 C 0,0 km/h (0 Bft) 0,00 %
20.01.2015 19:45 0,3 C 78 % 1011,1 hPa 0,0 l/m 0,0 km/h (0 Bft) SW 216 0 min 0,000 mm 0,0 UV-I 0 W/m -3,1 C 0,3 C 0,0 km/h (0 Bft) 0,00 %
20.01.2015 20:00 0,3 C 77 % 1011,1 hPa 0,0 l/m 0,0 km/h (0 Bft) SW 224 0 min 0,000 mm 0,0 UV-I 0 W/m -3,2 C 0,3 C 0,0 km/h (0 Bft) 0,00 %
20.01.2015 20:15 0,3 C 77 % 1011,2 hPa 0,0 l/m 0,0 km/h (0 Bft) S-SW 210 0 min 0,000 mm 0,0 UV-I 0 W/m -3,2 C 0,3 C 0,0 km/h (0 Bft) 0,00 %
20.01.2015 20:30 0,3 C 78 % 1011,5 hPa 0,0 l/m 0,0 km/h (0 Bft) SW 216 0 min 0,000 mm 0,0 UV-I 0 W/m -3,1 C 0,3 C 0,0 km/h (0 Bft) 0,00 %
20.01.2015 20:45 0,2 C 77 % 1011,5 hPa 0,0 l/m 0,0 km/h (0 Bft) SW 233 0 min 0,000 mm 0,0 UV-I 0 W/m -3,3 C 0,2 C 0,0 km/h (0 Bft) 0,00 %
20.01.2015 21:00 0,1 C 76 % 1011,7 hPa 0,0 l/m 0,0 km/h (0 Bft) SW 219 0 min 0,000 mm 0,0 UV-I 0 W/m -3,6 C 0,1 C 0,0 km/h (0 Bft) 0,00 %
20.01.2015 21:15 0,1 C 75 % 1011,7 hPa 0,0 l/m 0,0 km/h (0 Bft) SW 228 0 min 0,000 mm 0,0 UV-I 0 W/m -3,8 C 0,1 C 0,0 km/h (0 Bft) 0,00 %
20.01.2015 21:30 0,1 C 75 % 1011,9 hPa 0,0 l/m 0,0 km/h (0 Bft) SW 219 0 min 0,000 mm 0,0 UV-I 0 W/m -3,8 C 0,1 C 0,0 km/h (0 Bft) 0,00 %
20.01.2015 21:45 0,1 C 75 % 1011,9 hPa 0,0 l/m 0,4 km/h (0 Bft) SW 233 0 min 0,000 mm 0,0 UV-I 0 W/m -3,8 C 0,1 C 4,0 km/h (1 Bft) 0,00 %
20.01.2015 22:00 0,1 C 74 % 1011,7 hPa 0,0 l/m 0,0 km/h (0 Bft) SW 214 0 min 0,000 mm 0,0 UV-I 0 W/m -4,0 C 0,1 C 0,0 km/h (0 Bft) 0,00 %
20.01.2015 22:15 0,0 C 74 % 1012,0 hPa 0,0 l/m 0,0 km/h (0 Bft) SW 220 0 min 0,000 mm 0,0 UV-I 0 W/m -4,1 C 0,0 C 0,0 km/h (0 Bft) 0,00 %
20.01.2015 22:30 0,0 C 74 % 1012,0 hPa 0,0 l/m 0,0 km/h (0 Bft) SW 220 0 min 0,000 mm 0,0 UV-I 0 W/m -4,1 C 0,0 C 0,0 km/h (0 Bft) 0,00 %
20.01.2015 22:45 0,0 C 73 % 1012,1 hPa 0,0 l/m 0,0 km/h (0 Bft) S-SW 211 0 min 0,000 mm 0,0 UV-I 0 W/m -4,2 C 0,0 C 0,0 km/h (0 Bft) 0,00 %
20.01.2015 23:00 -0,1 C 74 % 1012,3 hPa 0,0 l/m 0,0 km/h (0 Bft) SW 215 0 min 0,000 mm 0,0 UV-I 0 W/m -4,2 C -0,1 C 0,0 km/h (0 Bft) 0,00 %
20.01.2015 23:15 0,0 C 73 % 1012,1 hPa 0,0 l/m 0,0 km/h (0 Bft) SW 216 0 min 0,000 mm 0,0 UV-I 0 W/m -4,2 C 0,0 C 0,0 km/h (0 Bft) 0,00 %
20.01.2015 23:30 -0,1 C 73 % 1012,0 hPa 0,0 l/m 0,0 km/h (0 Bft) S-SW 213 0 min 0,000 mm 0,0 UV-I 0 W/m -4,3 C -0,1 C 0,0 km/h (0 Bft) 0,00 %
20.01.2015 23:45 -0,1 C 73 % 1012,3 hPa 0,0 l/m 0,0 km/h (0 Bft) SW 214 0 min 0,000 mm 0,0 UV-I 0 W/m -4,3 C -0,1 C 0,0 km/h (0 Bft) 0,00 %
_ Min-Zeit 00:00 15:00 14:00 - 00:00 - - - - - - 23:30 00:45 00:00 00:00
Minimum _ -1,0 C 66 % 1008,6 hPa - 0,0 km/h (0 Bft) - - - - - - -4,3 C -2,1 C 0,0 km/h (0 Bft) 0,00 %
_ Max-Zeit 14:15 04:00 23:00 00:00 00:45 - - 09:15 00:00 09:15 13:30 19:00 14:15 00:45 00:00
Maximum _ 1,8 C 82 % 1012,3 hPa 0,0 l/m 7,9 km/h
O (2 Bft)
- - 15 min 0,000 mm 1,0 UV-I 205 W/m -2,9 C 1,8 C 11,9 km/h
O (2 Bft)
0,00 %
Durchschnitt _ 0,1 C 76 % 1009,9 hPa #0,0 l/m 0,4 km/h (0 Bft) O-SO - #1:45 h #0,000 mm 1,0 UV-I 130 W/m -3,6 C 0,1 C 0,9 km/h (0 Bft) 0,00 %